Time;durP1;ratioP1;P1;durP2;ratioP2;P2;SDS_P1;SDS_P2;PMS_P1;PMS_P2;Temp;Humidity;BMP_temperature;BMP_pressure;BME280_temperature;BME280_humidity;BME280_pressure;Samples;Min_cycle;Max_cycle;Signal;HPM_P1;HPM_P2
2022/01/30 00:00:33;;;;;;;;;;;7.30;99.90;;;;;;5092338;28;19904;-58
2022/01/30 00:02:59;;;;;;;;;;;7.20;99.90;;;;;;5092535;28;19931;-57
2022/01/30 00:05:27;;;;;;;;;;;7.10;99.90;;;;;;5091872;28;20278;-57
2022/01/30 00:07:53;;;;;;;;;;;7.10;99.90;;;;;;5092902;28;19904;-57
2022/01/30 00:10:18;;;;;;;;;;;7.10;99.90;;;;;;5092525;28;19915;-58
2022/01/30 00:12:56;;;;;;;;;;;7.10;99.90;;;;;;5091933;28;19904;-58
2022/01/30 00:16:07;;;;;;;;;;;7.10;99.90;;;;;;5092713;28;19930;-57
2022/01/30 00:18:41;;;;;;;;;;;7.10;99.90;;;;;;5084175;28;19930;-58
2022/01/30 00:26:50;;;;;;;;;;;6.90;99.90;;;;;;5046761;28;19952;-57
2022/01/30 00:29:15;;;;;;;;;;;6.90;99.90;;;;;;5072495;28;20256;-57
2022/01/30 00:31:42;;;;;;;;;;;6.90;99.90;;;;;;5091482;28;19923;-57
2022/01/30 00:34:08;;;;;;;;;;;6.90;99.90;;;;;;5091949;28;20450;-57
2022/01/30 00:36:33;;;;;;;;;;;6.90;99.90;;;;;;5092310;28;19948;-57
2022/01/30 00:38:59;;;;;;;;;;;6.90;99.90;;;;;;5092734;28;19911;-57
2022/01/30 00:41:25;;;;;;;;;;;7.00;99.90;;;;;;5091636;28;19987;-57
2022/01/30 00:43:50;;;;;;;;;;;7.00;99.90;;;;;;5091859;28;20029;-57
2022/01/30 00:46:16;;;;;;;;;;;7.00;99.90;;;;;;5092099;28;20380;-58
2022/01/30 00:48:41;;;;;;;;;;;7.10;99.90;;;;;;5095296;28;20369;-57
2022/01/30 00:51:07;;;;;;;;;;;7.20;99.90;;;;;;5096097;28;19908;-57
2022/01/30 00:53:32;;;;;;;;;;;7.30;99.90;;;;;;5095441;28;19904;-57
2022/01/30 00:55:57;;;;;;;;;;;7.30;99.90;;;;;;5096317;28;19910;-57
2022/01/30 00:58:23;;;;;;;;;;;7.30;99.90;;;;;;5096014;28;20006;-58
2022/01/30 01:00:48;;;;;;;;;;;7.20;99.90;;;;;;5095329;28;19915;-58
2022/01/30 01:03:14;;;;;;;;;;;7.00;99.90;;;;;;5095927;28;19908;-57
2022/01/30 01:05:39;;;;;;;;;;;6.90;99.90;;;;;;5095595;28;19915;-56
2022/01/30 01:08:50;;;;;;;;;;;6.80;99.90;;;;;;5095250;28;20378;-57
2022/01/30 01:11:01;;;;;;;;;;;6.80;99.90;;;;;;5087290;28;19911;-57
2022/01/30 01:23:58;;;;;;;;;;;6.40;99.90;;;;;;5094795;28;19912;-56
2022/01/30 01:26:24;;;;;;;;;;;6.40;99.90;;;;;;5095483;28;20323;-57
2022/01/30 01:28:50;;;;;;;;;;;6.30;99.90;;;;;;5094443;28;19904;-56
2022/01/30 01:31:16;;;;;;;;;;;6.30;99.90;;;;;;5094644;28;19931;-56
2022/01/30 01:36:25;;;;;;;;;;;6.20;99.90;;;;;;5094429;28;20347;-56
2022/01/30 01:38:51;;;;;;;;;;;6.20;99.90;;;;;;5095527;28;19911;-57
2022/01/30 01:41:18;;;;;;;;;;;6.20;99.90;;;;;;5095316;28;19911;-56
2022/01/30 01:43:43;;;;;;;;;;;6.20;99.90;;;;;;5094197;28;19958;-57
2022/01/30 01:46:15;;;;;;;;;;;6.10;99.90;;;;;;5095306;28;19935;-57
2022/01/30 01:48:42;;;;;;;;;;;6.10;99.90;;;;;;5095225;28;20327;-57
2022/01/30 01:51:16;;;;;;;;;;;6.10;99.90;;;;;;5094272;28;20022;-57
2022/01/30 01:53:41;;;;;;;;;;;6.10;99.90;;;;;;5095113;28;19904;-57
2022/01/30 01:56:07;;;;;;;;;;;6.20;99.90;;;;;;5095200;28;19904;-57
2022/01/30 01:58:32;;;;;;;;;;;6.30;99.90;;;;;;5094133;28;19935;-57
2022/01/30 02:00:59;;;;;;;;;;;6.30;99.90;;;;;;5095170;28;19904;-57
2022/01/30 02:03:26;;;;;;;;;;;6.40;99.90;;;;;;5094805;28;19904;-58
2022/01/30 02:05:55;;;;;;;;;;;6.40;99.90;;;;;;5094139;28;19948;-57
2022/01/30 02:27:14;;;;;;;;;;;6.40;99.90;;;;;;5093514;28;19920;-57
2022/01/30 02:29:39;;;;;;;;;;;6.40;99.90;;;;;;5093854;28;19961;-57
2022/01/30 02:32:05;;;;;;;;;;;6.40;99.90;;;;;;5094067;28;19904;-57
2022/01/30 02:34:31;;;;;;;;;;;6.40;99.90;;;;;;5094235;28;20321;-57
2022/01/30 02:36:57;;;;;;;;;;;6.40;99.90;;;;;;5093808;28;20403;-57
2022/01/30 02:39:23;;;;;;;;;;;6.40;99.90;;;;;;5093470;28;19904;-57
2022/01/30 02:41:49;;;;;;;;;;;6.50;99.90;;;;;;5094100;28;19973;-57
2022/01/30 02:46:46;;;;;;;;;;;6.50;99.90;;;;;;5093373;28;19939;-59
2022/01/30 02:51:52;;;;;;;;;;;6.40;99.90;;;;;;5093651;28;19970;-60
2022/01/30 02:54:17;;;;;;;;;;;6.20;99.90;;;;;;5093392;28;19904;-59
2022/01/30 02:56:43;;;;;;;;;;;6.10;99.90;;;;;;5094078;28;20380;-60
2022/01/30 02:59:08;;;;;;;;;;;6.10;99.90;;;;;;5093585;28;20461;-60
2022/01/30 03:01:34;;;;;;;;;;;6.00;99.90;;;;;;5093128;28;19911;-61
2022/01/30 03:03:59;;;;;;;;;;;6.00;99.90;;;;;;5093660;28;19912;-60
2022/01/30 03:06:25;;;;;;;;;;;6.00;99.90;;;;;;5093600;28;19910;-61
2022/01/30 03:08:51;;;;;;;;;;;6.10;99.90;;;;;;5092187;28;19914;-60
2022/01/30 03:11:17;;;;;;;;;;;6.10;99.90;;;;;;5093072;28;20364;-62
2022/01/30 03:13:42;;;;;;;;;;;6.20;99.90;;;;;;5093668;28;19949;-60
2022/01/30 03:16:08;;;;;;;;;;;6.20;99.90;;;;;;5092851;28;19918;-59
2022/01/30 03:18:33;;;;;;;;;;;6.30;99.90;;;;;;5093287;28;20271;-61
2022/01/30 03:20:58;;;;;;;;;;;6.20;99.90;;;;;;5093457;28;19904;-60
2022/01/30 03:23:24;;;;;;;;;;;6.20;99.90;;;;;;5092477;28;19927;-60
2022/01/30 03:25:57;;;;;;;;;;;6.20;99.90;;;;;;5093354;28;20320;-60
2022/01/30 03:28:24;;;;;;;;;;;6.20;99.90;;;;;;5092349;28;19983;-62
2022/01/30 03:30:53;;;;;;;;;;;6.20;99.90;;;;;;5093235;28;19904;-60
2022/01/30 03:33:19;;;;;;;;;;;6.20;99.90;;;;;;5093089;28;19926;-61
2022/01/30 03:35:45;;;;;;;;;;;6.20;99.90;;;;;;5092172;28;19904;-60
2022/01/30 03:38:10;;;;;;;;;;;6.20;99.90;;;;;;5092836;28;19916;-59
2022/01/30 03:40:36;;;;;;;;;;;6.20;99.90;;;;;;5093087;28;19927;-57
2022/01/30 03:43:02;;;;;;;;;;;6.20;99.90;;;;;;5092205;28;19904;-57
2022/01/30 03:45:27;;;;;;;;;;;6.20;99.90;;;;;;5092959;28;19957;-57
2022/01/30 03:47:55;;;;;;;;;;;6.20;99.90;;;;;;5093164;28;19912;-57
2022/01/30 03:50:21;;;;;;;;;;;6.30;99.90;;;;;;5092143;28;19970;-57
2022/01/30 03:52:47;;;;;;;;;;;6.30;99.90;;;;;;5093035;28;20373;-58
2022/01/30 03:55:13;;;;;;;;;;;6.40;99.90;;;;;;5092930;28;19904;-57
2022/01/30 03:57:38;;;;;;;;;;;6.40;99.90;;;;;;5092072;28;19904;-58
2022/01/30 04:00:04;;;;;;;;;;;6.40;99.90;;;;;;5093109;28;19918;-58
2022/01/30 04:02:30;;;;;;;;;;;6.40;99.90;;;;;;5092741;28;19915;-58
2022/01/30 04:04:55;;;;;;;;;;;6.50;99.90;;;;;;5092148;28;19912;-58
2022/01/30 04:07:21;;;;;;;;;;;6.50;99.90;;;;;;5092449;28;19912;-58
2022/01/30 04:09:46;;;;;;;;;;;6.60;99.90;;;;;;5092658;28;19904;-58
2022/01/30 04:12:13;;;;;;;;;;;6.60;99.90;;;;;;5091946;28;19904;-58
2022/01/30 04:14:38;;;;;;;;;;;6.60;99.90;;;;;;5092143;28;19908;-59
2022/01/30 04:17:05;;;;;;;;;;;6.70;99.90;;;;;;5092687;28;20267;-59
2022/01/30 04:19:31;;;;;;;;;;;6.70;99.90;;;;;;5091808;28;19908;-59
2022/01/30 04:21:56;;;;;;;;;;;6.70;99.90;;;;;;5093207;28;19911;-58
2022/01/30 04:24:21;;;;;;;;;;;6.70;99.90;;;;;;5096549;28;19912;-58
2022/01/30 04:26:47;;;;;;;;;;;6.80;99.90;;;;;;5095784;28;19915;-57
2022/01/30 04:29:12;;;;;;;;;;;6.80;99.90;;;;;;5096736;28;19904;-58
2022/01/30 04:31:38;;;;;;;;;;;6.80;99.90;;;;;;5095732;28;20002;-58
2022/01/30 04:34:04;;;;;;;;;;;6.80;99.90;;;;;;5096702;28;19908;-58
2022/01/30 04:36:35;;;;;;;;;;;6.70;99.90;;;;;;5095977;28;20026;-58
2022/01/30 04:39:31;;;;;;;;;;;6.70;99.90;;;;;;5095978;28;20010;-58
2022/01/30 04:42:24;;;;;;;;;;;6.60;99.90;;;;;;5096482;28;19969;-58
2022/01/30 04:53:17;;;;;;;;;;;6.50;99.90;;;;;;5095550;28;19915;-58
2022/01/30 05:03:28;;;;;;;;;;;6.50;99.90;;;;;;5096226;28;19939;-58
2022/01/30 05:08:19;;;;;;;;;;;6.50;99.90;;;;;;5094461;28;19991;-58
2022/01/30 05:10:45;;;;;;;;;;;6.50;99.90;;;;;;5095921;28;19908;-58
2022/01/30 05:13:15;;;;;;;;;;;6.50;99.90;;;;;;5095863;28;19908;-57
2022/01/30 05:15:43;;;;;;;;;;;6.50;99.90;;;;;;5095003;28;20010;-58
2022/01/30 05:18:09;;;;;;;;;;;6.50;99.90;;;;;;5095856;28;20199;-57
2022/01/30 05:20:35;;;;;;;;;;;6.40;99.90;;;;;;5095636;28;20237;-58
2022/01/30 05:23:01;;;;;;;;;;;6.40;99.90;;;;;;5094847;28;19904;-58
2022/01/30 05:25:26;;;;;;;;;;;6.30;99.90;;;;;;5095465;28;19920;-58
2022/01/30 05:27:52;;;;;;;;;;;6.30;99.90;;;;;;5093718;28;20010;-58
2022/01/30 05:30:17;;;;;;;;;;;6.30;99.90;;;;;;5094372;28;20037;-58
2022/01/30 05:32:43;;;;;;;;;;;6.20;99.90;;;;;;5093919;28;19904;-58
2022/01/30 05:35:10;;;;;;;;;;;6.20;99.90;;;;;;5075127;28;19904;-58
2022/01/30 05:37:37;;;;;;;;;;;6.10;99.90;;;;;;5093752;28;19911;-58
2022/01/30 05:40:03;;;;;;;;;;;6.10;99.90;;;;;;5094283;28;20169;-58
2022/01/30 05:42:29;;;;;;;;;;;6.10;99.90;;;;;;5093235;28;19904;-58
2022/01/30 05:45:09;;;;;;;;;;;6.20;99.90;;;;;;5093720;28;19911;-57
2022/01/30 05:47:38;;;;;;;;;;;6.20;99.90;;;;;;5094147;28;19949;-57
2022/01/30 05:50:04;;;;;;;;;;;6.00;99.90;;;;;;5093416;28;19951;-58
2022/01/30 05:52:29;;;;;;;;;;;6.10;99.90;;;;;;5093990;28;19950;-57
2022/01/30 05:54:54;;;;;;;;;;;6.00;99.90;;;;;;5093965;28;19904;-57
2022/01/30 05:57:20;;;;;;;;;;;6.00;99.90;;;;;;5093161;28;19946;-57
2022/01/30 05:59:45;;;;;;;;;;;6.00;99.90;;;;;;5094043;28;20347;-57
2022/01/30 06:02:11;;;;;;;;;;;6.00;99.90;;;;;;5075796;28;20002;-57
2022/01/30 06:04:36;;;;;;;;;;;5.90;99.90;;;;;;5093012;28;19950;-57
2022/01/30 06:07:02;;;;;;;;;;;5.90;99.90;;;;;;5093812;28;20290;-57
2022/01/30 06:09:27;;;;;;;;;;;6.00;99.90;;;;;;5093926;28;19947;-57
2022/01/30 06:11:53;;;;;;;;;;;6.00;99.90;;;;;;5092829;28;20286;-58
2022/01/30 06:14:19;;;;;;;;;;;6.10;99.90;;;;;;5093482;28;20370;-58
2022/01/30 06:16:45;;;;;;;;;;;6.20;99.90;;;;;;5093701;28;19908;-57
2022/01/30 06:19:10;;;;;;;;;;;6.20;99.90;;;;;;5092904;28;20359;-57
2022/01/30 06:21:36;;;;;;;;;;;6.20;99.90;;;;;;5093119;28;19908;-58
2022/01/30 06:24:01;;;;;;;;;;;6.20;99.90;;;;;;5092605;28;19907;-57
2022/01/30 06:26:27;;;;;;;;;;;6.20;99.90;;;;;;5057130;28;1026704;-57
2022/01/30 06:28:53;;;;;;;;;;;6.30;99.90;;;;;;5094551;28;19978;-58
2022/01/30 06:31:18;;;;;;;;;;;6.30;99.90;;;;;;5093828;28;19908;-57
2022/01/30 06:33:44;;;;;;;;;;;6.30;99.90;;;;;;5094363;28;20055;-57
2022/01/30 06:36:10;;;;;;;;;;;6.30;99.90;;;;;;5094103;28;19999;-57
2022/01/30 06:38:35;;;;;;;;;;;6.30;99.90;;;;;;5092638;28;19904;-57
2022/01/30 06:41:01;;;;;;;;;;;6.40;99.90;;;;;;5094263;28;20275;-57
2022/01/30 06:43:26;;;;;;;;;;;6.40;99.90;;;;;;5093814;28;19923;-58
2022/01/30 06:45:52;;;;;;;;;;;6.50;99.90;;;;;;5092607;28;19945;-58
2022/01/30 06:48:18;;;;;;;;;;;6.50;99.90;;;;;;5094039;28;19904;-58
2022/01/30 06:50:43;;;;;;;;;;;6.40;99.90;;;;;;5094059;28;19904;-58
2022/01/30 06:53:09;;;;;;;;;;;6.40;99.90;;;;;;5093070;28;19904;-58
2022/01/30 06:55:35;;;;;;;;;;;6.30;99.90;;;;;;5093880;28;20378;-57
2022/01/30 06:58:00;;;;;;;;;;;6.20;99.90;;;;;;5093957;28;19907;-58
2022/01/30 07:00:25;;;;;;;;;;;6.10;99.90;;;;;;5093023;28;20314;-58
2022/01/30 07:02:51;;;;;;;;;;;6.10;99.90;;;;;;5093436;28;20328;-58
2022/01/30 07:05:16;;;;;;;;;;;6.20;99.90;;;;;;5093612;28;19974;-57
2022/01/30 07:07:42;;;;;;;;;;;6.10;99.90;;;;;;5092851;28;19905;-58
2022/01/30 07:10:08;;;;;;;;;;;6.10;99.90;;;;;;5093749;28;19904;-57
2022/01/30 07:12:33;;;;;;;;;;;6.10;99.90;;;;;;5093185;28;19908;-58
2022/01/30 07:14:59;;;;;;;;;;;6.20;99.90;;;;;;5092601;28;19904;-58
2022/01/30 07:17:24;;;;;;;;;;;6.20;99.90;;;;;;5093611;28;19904;-57
2022/01/30 07:19:50;;;;;;;;;;;6.30;99.90;;;;;;5093369;28;20002;-57
2022/01/30 07:22:15;;;;;;;;;;;6.30;99.90;;;;;;5092351;28;19957;-57
2022/01/30 07:24:40;;;;;;;;;;;6.30;99.90;;;;;;5091757;28;20020;-57
2022/01/30 07:27:06;;;;;;;;;;;6.30;99.90;;;;;;5092352;28;19997;-57
2022/01/30 07:29:31;;;;;;;;;;;6.50;99.90;;;;;;5091752;28;19912;-57
2022/01/30 07:31:57;;;;;;;;;;;6.50;99.90;;;;;;5091801;28;19908;-57
2022/01/30 07:34:22;;;;;;;;;;;6.60;99.90;;;;;;5091832;28;19910;-57
2022/01/30 07:36:48;;;;;;;;;;;6.50;99.90;;;;;;5092326;28;20410;-57
2022/01/30 07:39:15;;;;;;;;;;;6.50;99.90;;;;;;5092282;28;19999;-57
2022/01/30 07:41:42;;;;;;;;;;;6.50;99.90;;;;;;5091231;28;19912;-57
2022/01/30 07:44:08;;;;;;;;;;;6.40;99.90;;;;;;5091832;28;19911;-57
2022/01/30 07:46:34;;;;;;;;;;;6.40;99.90;;;;;;5092463;28;19904;-57
2022/01/30 07:48:59;;;;;;;;;;;6.40;99.90;;;;;;5091358;28;20320;-57
2022/01/30 07:51:25;;;;;;;;;;;6.40;99.90;;;;;;5091787;28;20259;-57
2022/01/30 07:53:50;;;;;;;;;;;6.40;99.90;;;;;;5087153;28;19908;-57
2022/01/30 07:56:16;;;;;;;;;;;6.40;99.90;;;;;;5071071;28;19908;-57
2022/01/30 07:58:41;;;;;;;;;;;6.40;99.90;;;;;;5083563;28;19934;-57
2022/01/30 08:01:07;;;;;;;;;;;6.40;99.90;;;;;;5092011;28;19908;-57
2022/01/30 08:03:32;;;;;;;;;;;6.40;99.90;;;;;;5091472;28;19937;-57
2022/01/30 08:05:58;;;;;;;;;;;6.40;99.90;;;;;;5091829;28;19916;-57
2022/01/30 08:08:23;;;;;;;;;;;6.40;99.90;;;;;;5092169;28;20359;-57
2022/01/30 08:10:49;;;;;;;;;;;6.50;99.90;;;;;;5079936;28;20248;-57
2022/01/30 08:13:16;;;;;;;;;;;6.50;99.90;;;;;;5071606;28;20400;-57
2022/01/30 08:15:41;;;;;;;;;;;6.50;99.90;;;;;;5071961;28;19915;-57
2022/01/30 08:18:07;;;;;;;;;;;6.50;99.90;;;;;;5070889;28;19905;-57
2022/01/30 08:20:32;;;;;;;;;;;6.50;99.90;;;;;;5071843;28;20359;-57
2022/01/30 08:23:00;;;;;;;;;;;6.60;99.90;;;;;;5071286;28;19908;-57
2022/01/30 08:25:25;;;;;;;;;;;6.60;99.90;;;;;;5071020;28;19912;-57
2022/01/30 08:27:51;;;;;;;;;;;6.50;99.90;;;;;;5071556;28;20010;-57
2022/01/30 08:30:17;;;;;;;;;;;6.60;94.60;;;;;;5071693;28;19908;-57
2022/01/30 08:32:43;;;;;;;;;;;6.60;98.90;;;;;;5070888;28;20386;-57
2022/01/30 08:35:10;;;;;;;;;;;6.60;92.40;;;;;;5071384;28;19904;-57
2022/01/30 08:37:36;;;;;;;;;;;6.70;93.30;;;;;;5073646;28;20286;-57
2022/01/30 08:40:05;;;;;;;;;;;6.80;99.30;;;;;;5090900;28;19915;-57
2022/01/30 08:42:30;;;;;;;;;;;6.80;99.90;;;;;;5091798;28;19904;-57
2022/01/30 08:44:55;;;;;;;;;;;6.80;93.60;;;;;;5090058;28;19923;-57
2022/01/30 08:47:21;;;;;;;;;;;6.80;97.70;;;;;;5088062;28;20306;-57
2022/01/30 08:49:46;;;;;;;;;;;6.90;96.30;;;;;;5091661;28;20332;-57
2022/01/30 08:52:16;;;;;;;;;;;6.80;92.20;;;;;;5090895;28;19904;-57
2022/01/30 08:54:42;;;;;;;;;;;6.80;91.90;;;;;;5091659;28;19996;-57
2022/01/30 08:57:07;;;;;;;;;;;6.80;86.60;;;;;;5091447;28;20370;-57
2022/01/30 08:59:33;;;;;;;;;;;6.80;92.90;;;;;;5090536;28;19915;-57
2022/01/30 09:01:58;;;;;;;;;;;6.80;91.30;;;;;;5091388;28;19904;-57
2022/01/30 09:04:23;;;;;;;;;;;6.70;93.40;;;;;;5091432;28;20381;-57
2022/01/30 09:06:49;;;;;;;;;;;6.70;99.90;;;;;;5090876;28;20359;-57
2022/01/30 09:09:14;;;;;;;;;;;6.70;97.20;;;;;;5092436;28;20285;-57
2022/01/30 09:11:40;;;;;;;;;;;6.70;95.30;;;;;;5095026;28;19957;-57
2022/01/30 09:14:07;;;;;;;;;;;6.70;95.70;;;;;;5094098;28;19930;-57
2022/01/30 09:16:33;;;;;;;;;;;6.90;98.00;;;;;;5095011;28;20366;-57
2022/01/30 09:18:58;;;;;;;;;;;7.00;99.90;;;;;;5094376;28;19908;-57
2022/01/30 09:21:24;;;;;;;;;;;7.10;93.70;;;;;;5094421;28;19904;-57
2022/01/30 09:23:50;;;;;;;;;;;7.20;90.90;;;;;;5095034;28;19991;-57
2022/01/30 09:26:15;;;;;;;;;;;7.30;97.80;;;;;;5093976;28;19962;-57
2022/01/30 09:28:41;;;;;;;;;;;7.30;96.30;;;;;;5094324;28;19926;-57
2022/01/30 09:31:06;;;;;;;;;;;7.30;98.30;;;;;;5094731;28;19927;-57
2022/01/30 09:33:31;;;;;;;;;;;7.30;96.00;;;;;;5094694;28;19908;-57
2022/01/30 09:35:57;;;;;;;;;;;7.20;96.00;;;;;;5093560;28;19913;-57
2022/01/30 09:38:23;;;;;;;;;;;7.10;98.40;;;;;;5075916;28;19909;-57
2022/01/30 09:40:52;;;;;;;;;;;7.20;93.20;;;;;;5074668;28;19912;-57
2022/01/30 09:43:17;;;;;;;;;;;7.20;96.90;;;;;;5073635;28;19926;-57
2022/01/30 09:45:43;;;;;;;;;;;7.40;91.40;;;;;;5085588;28;20282;-56
2022/01/30 09:48:08;;;;;;;;;;;7.50;89.50;;;;;;5094183;28;20418;-58
2022/01/30 09:50:35;;;;;;;;;;;7.60;89.50;;;;;;5090258;28;19904;-57
2022/01/30 09:53:00;;;;;;;;;;;7.50;94.40;;;;;;5094238;28;19987;-57
2022/01/30 09:55:26;;;;;;;;;;;7.50;93.60;;;;;;5093005;28;20007;-57
2022/01/30 09:57:53;;;;;;;;;;;7.50;91.50;;;;;;5093790;28;19957;-57
2022/01/30 10:00:18;;;;;;;;;;;7.50;93.70;;;;;;5086075;28;19917;-57
2022/01/30 10:02:44;;;;;;;;;;;7.60;93.00;;;;;;5072167;28;19910;-57
2022/01/30 10:05:11;;;;;;;;;;;7.70;91.90;;;;;;5082497;28;19969;-57
2022/01/30 10:07:45;;;;;;;;;;;7.80;91.10;;;;;;5093753;28;19904;-57
2022/01/30 10:10:11;;;;;;;;;;;7.80;90.90;;;;;;5090022;28;19904;-57
2022/01/30 10:12:58;;;;;;;;;;;7.80;90.80;;;;;;5080347;28;19943;-57
2022/01/30 10:15:23;;;;;;;;;;;7.90;90.50;;;;;;5090989;28;19949;-56
2022/01/30 10:17:50;;;;;;;;;;;7.90;91.30;;;;;;5072218;28;20352;-57
2022/01/30 10:20:16;;;;;;;;;;;8.00;93.10;;;;;;5071675;28;20402;-57
2022/01/30 10:22:52;;;;;;;;;;;7.90;89.00;;;;;;5073001;28;19908;-57
2022/01/30 10:25:19;;;;;;;;;;;8.00;93.60;;;;;;5084950;28;19912;-57
2022/01/30 10:27:44;;;;;;;;;;;8.00;93.60;;;;;;5092847;28;19947;-57
2022/01/30 10:30:10;;;;;;;;;;;8.00;88.50;;;;;;5092649;28;19973;-57
2022/01/30 10:32:35;;;;;;;;;;;8.10;86.90;;;;;;5092319;28;20359;-57
2022/01/30 10:35:05;;;;;;;;;;;8.10;90.00;;;;;;5091889;28;19943;-57
2022/01/30 10:37:31;;;;;;;;;;;8.10;88.30;;;;;;5091798;28;19928;-57
2022/01/30 10:40:10;;;;;;;;;;;8.20;89.00;;;;;;5092631;28;19910;-57
2022/01/30 10:42:41;;;;;;;;;;;8.20;90.60;;;;;;5081174;28;19992;-56
2022/01/30 10:45:14;;;;;;;;;;;8.20;81.80;;;;;;5081980;28;20006;-57
2022/01/30 10:47:40;;;;;;;;;;;8.30;88.70;;;;;;5092991;28;19904;-56
2022/01/30 10:50:10;;;;;;;;;;;8.30;81.60;;;;;;5093151;28;19966;-56
2022/01/30 10:52:46;;;;;;;;;;;8.40;79.00;;;;;;5091846;28;19998;-57
2022/01/30 10:55:11;;;;;;;;;;;8.40;78.20;;;;;;5092290;28;19955;-57
2022/01/30 10:57:41;;;;;;;;;;;8.60;77.30;;;;;;5093623;28;19948;-57
2022/01/30 11:00:07;;;;;;;;;;;8.70;81.50;;;;;;5093070;28;19950;-57
2022/01/30 11:02:36;;;;;;;;;;;8.70;79.70;;;;;;5093669;28;19995;-57
2022/01/30 11:05:03;;;;;;;;;;;8.70;76.20;;;;;;5085650;28;20003;-57
2022/01/30 11:07:30;;;;;;;;;;;8.60;78.30;;;;;;5072498;28;19940;-57
2022/01/30 11:09:59;;;;;;;;;;;8.50;80.40;;;;;;5077283;28;19904;-57
2022/01/30 11:12:34;;;;;;;;;;;8.30;81.50;;;;;;5091747;28;19904;-56
2022/01/30 11:15:16;;;;;;;;;;;8.30;86.90;;;;;;5079158;28;19909;-57
2022/01/30 11:17:43;;;;;;;;;;;8.30;90.50;;;;;;5072085;28;20045;-56
2022/01/30 11:20:11;;;;;;;;;;;8.30;90.80;;;;;;5071099;28;19958;-57
2022/01/30 11:22:37;;;;;;;;;;;8.30;88.70;;;;;;5071622;28;20336;-57
2022/01/30 11:25:04;;;;;;;;;;;8.30;87.30;;;;;;5082525;28;19919;-57
2022/01/30 11:27:31;;;;;;;;;;;8.40;88.40;;;;;;5091394;28;19916;-57
2022/01/30 11:29:58;;;;;;;;;;;8.40;88.80;;;;;;5091980;28;19930;-56
2022/01/30 11:32:24;;;;;;;;;;;8.50;90.40;;;;;;5091095;28;20006;-56
2022/01/30 11:34:50;;;;;;;;;;;8.50;85.70;;;;;;5088562;28;19908;-57
2022/01/30 11:37:17;;;;;;;;;;;8.50;81.00;;;;;;5091231;28;20515;-57
2022/01/30 11:39:46;;;;;;;;;;;8.60;87.60;;;;;;5092399;28;19991;-57
2022/01/30 11:42:12;;;;;;;;;;;8.60;77.60;;;;;;5089848;28;19943;-56
2022/01/30 11:44:42;;;;;;;;;;;8.80;85.40;;;;;;5089740;28;19973;-57
2022/01/30 11:47:08;;;;;;;;;;;8.90;84.30;;;;;;5091611;28;20002;-57
2022/01/30 11:49:41;;;;;;;;;;;9.00;75.90;;;;;;5091701;28;19904;-57
2022/01/30 11:52:09;;;;;;;;;;;9.10;83.70;;;;;;5091274;28;19914;-57
2022/01/30 11:54:39;;;;;;;;;;;9.10;80.00;;;;;;5091466;28;19904;-57
2022/01/30 11:57:27;;;;;;;;;;;9.10;80.80;;;;;;5092068;28;19939;-56
2022/01/30 11:59:53;;;;;;;;;;;9.10;82.80;;;;;;5071788;28;20482;-57
2022/01/30 12:02:22;;;;;;;;;;;9.00;72.70;;;;;;5071397;28;19904;-57
2022/01/30 12:04:52;;;;;;;;;;;9.10;77.90;;;;;;5072051;28;19919;-57
2022/01/30 12:07:41;;;;;;;;;;;9.10;76.10;;;;;;5072051;28;19904;-57
2022/01/30 12:10:15;;;;;;;;;;;8.90;76.20;;;;;;5066470;28;20395;-57
2022/01/30 12:12:48;;;;;;;;;;;8.80;75.60;;;;;;5091883;28;19908;-57
2022/01/30 12:15:32;;;;;;;;;;;8.80;75.90;;;;;;5087172;28;20330;-57
2022/01/30 12:17:57;;;;;;;;;;;8.70;79.60;;;;;;5088581;28;19915;-57
2022/01/30 12:20:23;;;;;;;;;;;8.80;73.40;;;;;;5092183;28;20290;-56
2022/01/30 12:22:49;;;;;;;;;;;8.80;76.50;;;;;;5090959;28;20347;-57
2022/01/30 12:25:22;;;;;;;;;;;8.90;75.30;;;;;;5091104;28;20053;-57
2022/01/30 12:27:49;;;;;;;;;;;8.90;79.00;;;;;;5091586;28;20279;-57
2022/01/30 12:30:37;;;;;;;;;;;9.00;75.40;;;;;;5089740;28;19904;-57
2022/01/30 12:33:23;;;;;;;;;;;9.20;74.30;;;;;;5091251;28;20268;-57
2022/01/30 12:35:50;;;;;;;;;;;9.10;75.60;;;;;;5091707;28;19904;-57
2022/01/30 12:38:15;;;;;;;;;;;8.90;73.70;;;;;;5090828;28;19904;-56
2022/01/30 12:40:44;;;;;;;;;;;8.90;77.70;;;;;;5088397;28;19968;-57
2022/01/30 12:43:10;;;;;;;;;;;8.80;76.70;;;;;;5091271;28;19950;-56
2022/01/30 12:45:35;;;;;;;;;;;8.70;72.00;;;;;;5094483;28;19912;-57
2022/01/30 12:48:02;;;;;;;;;;;8.50;74.00;;;;;;5095341;28;19904;-57
2022/01/30 12:50:32;;;;;;;;;;;8.60;76.90;;;;;;5095239;28;19904;-57
2022/01/30 12:52:57;;;;;;;;;;;8.70;81.30;;;;;;5093991;28;19914;-56
2022/01/30 12:55:23;;;;;;;;;;;8.80;77.30;;;;;;5095529;28;19994;-56
2022/01/30 12:57:51;;;;;;;;;;;9.00;79.90;;;;;;5094956;28;20362;-57
2022/01/30 13:00:17;;;;;;;;;;;9.10;78.40;;;;;;5093566;28;19904;-57
2022/01/30 13:03:00;;;;;;;;;;;9.10;75.50;;;;;;5094762;28;19912;-57
2022/01/30 13:05:29;;;;;;;;;;;9.10;75.80;;;;;;5094137;28;19919;-57
2022/01/30 13:07:56;;;;;;;;;;;8.90;72.40;;;;;;5094496;28;19920;-57
2022/01/30 13:10:22;;;;;;;;;;;8.80;73.50;;;;;;5095021;28;19911;-57
2022/01/30 13:12:48;;;;;;;;;;;8.80;79.10;;;;;;5093249;28;19912;-57
2022/01/30 13:15:14;;;;;;;;;;;8.80;74.90;;;;;;5093903;28;19912;-56
2022/01/30 13:17:40;;;;;;;;;;;8.90;77.90;;;;;;5094801;28;20247;-57
2022/01/30 13:20:06;;;;;;;;;;;8.90;81.40;;;;;;5095032;28;19949;-57
2022/01/30 13:22:34;;;;;;;;;;;8.90;77.50;;;;;;5095543;28;19908;-57
2022/01/30 13:25:02;;;;;;;;;;;8.90;78.60;;;;;;5095435;28;19912;-57
2022/01/30 13:27:28;;;;;;;;;;;8.80;76.60;;;;;;5094026;28;20010;-57
2022/01/30 13:29:54;;;;;;;;;;;8.60;79.30;;;;;;5094927;28;19991;-57
2022/01/30 13:32:22;;;;;;;;;;;8.50;81.80;;;;;;5094639;28;19961;-56
2022/01/30 13:34:48;;;;;;;;;;;8.40;83.30;;;;;;5093867;28;20362;-57
2022/01/30 13:37:15;;;;;;;;;;;8.20;84.00;;;;;;5094651;28;19904;-56
2022/01/30 13:39:48;;;;;;;;;;;8.20;82.80;;;;;;5094632;28;20354;-56
2022/01/30 13:42:32;;;;;;;;;;;8.30;81.60;;;;;;5093197;28;20392;-57
2022/01/30 13:48:01;;;;;;;;;;;8.80;83.70;;;;;;5062375;28;20455;-56
2022/01/30 13:50:38;;;;;;;;;;;9.10;72.40;;;;;;5094581;28;19904;-57
2022/01/30 13:53:08;;;;;;;;;;;9.40;70.00;;;;;;5093956;28;20343;-57
2022/01/30 13:55:54;;;;;;;;;;;9.60;68.00;;;;;;5093454;28;19904;-57
2022/01/30 13:58:26;;;;;;;;;;;9.70;69.30;;;;;;5080171;28;19904;-57
2022/01/30 14:00:52;;;;;;;;;;;9.50;69.90;;;;;;5094259;28;20365;-56
2022/01/30 14:03:24;;;;;;;;;;;9.20;69.20;;;;;;5093346;28;19938;-56
2022/01/30 14:05:50;;;;;;;;;;;8.90;71.60;;;;;;5094333;28;20006;-57
2022/01/30 14:08:20;;;;;;;;;;;8.70;72.60;;;;;;5093334;28;20008;-56
2022/01/30 14:10:46;;;;;;;;;;;8.50;72.90;;;;;;5094212;28;19904;-57
2022/01/30 14:13:16;;;;;;;;;;;8.30;74.00;;;;;;5093198;28;19916;-56
2022/01/30 14:15:42;;;;;;;;;;;8.30;75.60;;;;;;5093383;28;19911;-56
2022/01/30 14:18:20;;;;;;;;;;;8.30;73.60;;;;;;5093944;28;19904;-56
2022/01/30 14:20:46;;;;;;;;;;;8.50;75.30;;;;;;5094097;28;19904;-56
2022/01/30 14:23:13;;;;;;;;;;;8.80;74.90;;;;;;5092243;28;19918;-56
2022/01/30 14:25:42;;;;;;;;;;;9.10;74.80;;;;;;5094000;28;19916;-57
2022/01/30 14:28:18;;;;;;;;;;;9.30;71.00;;;;;;5093517;28;19967;-57
2022/01/30 14:30:43;;;;;;;;;;;9.50;67.40;;;;;;5093074;28;19986;-56
2022/01/30 14:33:08;;;;;;;;;;;9.60;73.80;;;;;;5092982;28;20006;-57
2022/01/30 14:35:36;;;;;;;;;;;9.70;70.00;;;;;;5093689;28;19908;-57
2022/01/30 14:38:05;;;;;;;;;;;9.80;67.30;;;;;;5092463;28;20003;-57
2022/01/30 14:40:31;;;;;;;;;;;9.70;67.50;;;;;;5093690;28;19986;-57
2022/01/30 14:42:58;;;;;;;;;;;9.60;69.90;;;;;;5092924;28;19908;-57
2022/01/30 14:45:24;;;;;;;;;;;9.60;67.50;;;;;;5092507;28;19955;-56
2022/01/30 14:47:50;;;;;;;;;;;9.40;69.10;;;;;;5093071;28;20303;-57
2022/01/30 14:50:15;;;;;;;;;;;9.30;71.00;;;;;;5091753;28;19908;-56
2022/01/30 14:52:41;;;;;;;;;;;9.20;67.80;;;;;;5087641;28;19908;-56
2022/01/30 14:55:07;;;;;;;;;;;9.00;72.40;;;;;;5072850;28;19904;-56
2022/01/30 14:57:32;;;;;;;;;;;8.70;68.20;;;;;;5081410;28;19954;-56
2022/01/30 14:59:58;;;;;;;;;;;8.50;71.00;;;;;;5093180;28;19904;-56
2022/01/30 15:02:23;;;;;;;;;;;8.40;70.90;;;;;;5092817;28;20019;-56
2022/01/30 15:04:48;;;;;;;;;;;8.20;71.90;;;;;;5090496;28;19920;-56
2022/01/30 15:07:14;;;;;;;;;;;8.10;72.70;;;;;;5091410;28;19941;-56
2022/01/30 15:09:40;;;;;;;;;;;8.00;73.10;;;;;;5092897;28;19911;-56
2022/01/30 15:12:06;;;;;;;;;;;8.00;73.90;;;;;;5092049;28;19910;-56
2022/01/30 15:14:37;;;;;;;;;;;8.00;73.30;;;;;;5092351;28;20354;-56
2022/01/30 15:17:05;;;;;;;;;;;8.00;74.70;;;;;;5092476;28;19912;-56
2022/01/30 15:19:31;;;;;;;;;;;8.10;74.70;;;;;;5091983;28;19904;-56
2022/01/30 15:21:56;;;;;;;;;;;8.10;73.40;;;;;;5092650;28;19911;-57
2022/01/30 15:24:23;;;;;;;;;;;8.10;74.80;;;;;;5092305;28;20002;-56
2022/01/30 15:26:49;;;;;;;;;;;8.20;74.70;;;;;;5091729;28;19938;-56
2022/01/30 15:29:15;;;;;;;;;;;8.20;74.10;;;;;;5092440;28;20278;-57
2022/01/30 15:31:40;;;;;;;;;;;8.20;75.00;;;;;;5092836;28;19931;-56
2022/01/30 15:34:06;;;;;;;;;;;8.20;74.50;;;;;;5091050;28;20375;-56
2022/01/30 15:36:32;;;;;;;;;;;8.00;75.20;;;;;;5092303;28;19908;-57